sensor_id;sensor_type;location;lat;lon;timestamp;temperature;humidity
15231;DHT22;32569;51.762;8.564;2022-10-19T00:01:04;7.80;99.90
15231;DHT22;32569;51.762;8.564;2022-10-19T00:03:32;7.70;99.90
15231;DHT22;32569;51.762;8.564;2022-10-19T00:05:59;7.80;99.90
15231;DHT22;32569;51.762;8.564;2022-10-19T00:08:26;7.90;99.90
15231;DHT22;32569;51.762;8.564;2022-10-19T00:10:53;7.90;99.90
15231;DHT22;32569;51.762;8.564;2022-10-19T00:13:21;7.90;99.90
15231;DHT22;32569;51.762;8.564;2022-10-19T00:15:47;8.00;99.90
15231;DHT22;32569;51.762;8.564;2022-10-19T00:18:14;8.00;99.90
15231;DHT22;32569;51.762;8.564;2022-10-19T00:20:41;7.90;99.90
15231;DHT22;32569;51.762;8.564;2022-10-19T00:23:08;7.80;99.90
15231;DHT22;32569;51.762;8.564;2022-10-19T00:25:34;7.90;99.90
15231;DHT22;32569;51.762;8.564;2022-10-19T00:28:03;7.70;99.90
15231;DHT22;32569;51.762;8.564;2022-10-19T00:30:35;7.50;99.90
15231;DHT22;32569;51.762;8.564;2022-10-19T00:33:02;7.50;99.90
15231;DHT22;32569;51.762;8.564;2022-10-19T00:35:29;7.50;99.90
15231;DHT22;32569;51.762;8.564;2022-10-19T00:37:56;7.50;99.90
15231;DHT22;32569;51.762;8.564;2022-10-19T00:40:23;7.70;99.90
15231;DHT22;32569;51.762;8.564;2022-10-19T00:42:53;7.90;99.90
15231;DHT22;32569;51.762;8.564;2022-10-19T00:45:21;7.80;99.90
15231;DHT22;32569;51.762;8.564;2022-10-19T00:47:49;7.90;99.90
15231;DHT22;32569;51.762;8.564;2022-10-19T00:50:16;8.00;99.90
15231;DHT22;32569;51.762;8.564;2022-10-19T00:52:43;7.90;99.90
15231;DHT22;32569;51.762;8.564;2022-10-19T00:55:10;7.80;99.90
15231;DHT22;32569;51.762;8.564;2022-10-19T00:57:38;7.90;99.90
15231;DHT22;32569;51.762;8.564;2022-10-19T01:00:07;7.90;99.90
15231;DHT22;32569;51.762;8.564;2022-10-19T01:02:34;8.00;99.90
15231;DHT22;32569;51.762;8.564;2022-10-19T01:05:03;8.00;99.90
15231;DHT22;32569;51.762;8.564;2022-10-19T01:07:30;8.10;99.90
15231;DHT22;32569;51.762;8.564;2022-10-19T01:09:58;8.10;99.90
15231;DHT22;32569;51.762;8.564;2022-10-19T01:15:26;8.20;99.90
15231;DHT22;32569;51.762;8.564;2022-10-19T01:18:00;8.30;99.90
15231;DHT22;32569;51.762;8.564;2022-10-19T01:21:06;8.20;99.90
15231;DHT22;32569;51.762;8.564;2022-10-19T01:24:17;8.20;99.90
15231;DHT22;32569;51.762;8.564;2022-10-19T01:27:11;8.30;99.90
15231;DHT22;32569;51.762;8.564;2022-10-19T01:30:03;8.20;99.90
15231;DHT22;32569;51.762;8.564;2022-10-19T01:32:40;8.10;99.90
15231;DHT22;32569;51.762;8.564;2022-10-19T01:35:10;8.00;99.90
15231;DHT22;32569;51.762;8.564;2022-10-19T01:37:45;7.80;99.90
15231;DHT22;32569;51.762;8.564;2022-10-19T01:40:19;7.80;99.90
15231;DHT22;32569;51.762;8.564;2022-10-19T01:42:54;7.70;99.90
15231;DHT22;32569;51.762;8.564;2022-10-19T01:45:28;7.50;99.90
15231;DHT22;32569;51.762;8.564;2022-10-19T01:48:01;7.30;99.90
15231;DHT22;32569;51.762;8.564;2022-10-19T01:50:34;7.30;99.90
15231;DHT22;32569;51.762;8.564;2022-10-19T01:53:03;7.20;99.90
15231;DHT22;32569;51.762;8.564;2022-10-19T01:55:31;7.30;99.90
15231;DHT22;32569;51.762;8.564;2022-10-19T01:58:02;7.30;99.90
15231;DHT22;32569;51.762;8.564;2022-10-19T02:00:34;7.20;99.90
15231;DHT22;32569;51.762;8.564;2022-10-19T02:03:03;7.10;99.90
15231;DHT22;32569;51.762;8.564;2022-10-19T02:05:32;7.10;99.90
15231;DHT22;32569;51.762;8.564;2022-10-19T02:08:02;7.00;99.90
15231;DHT22;32569;51.762;8.564;2022-10-19T02:10:33;6.90;99.90
15231;DHT22;32569;51.762;8.564;2022-10-19T02:13:03;6.80;99.90
15231;DHT22;32569;51.762;8.564;2022-10-19T02:15:35;6.70;99.90
15231;DHT22;32569;51.762;8.564;2022-10-19T02:18:03;6.70;99.90
15231;DHT22;32569;51.762;8.564;2022-10-19T02:20:31;7.00;99.90
15231;DHT22;32569;51.762;8.564;2022-10-19T02:23:02;7.00;99.90
15231;DHT22;32569;51.762;8.564;2022-10-19T02:25:30;7.00;99.90
15231;DHT22;32569;51.762;8.564;2022-10-19T02:27:57;7.10;99.90
15231;DHT22;32569;51.762;8.564;2022-10-19T02:30:24;7.00;99.90
15231;DHT22;32569;51.762;8.564;2022-10-19T02:32:52;7.10;99.90
15231;DHT22;32569;51.762;8.564;2022-10-19T02:35:19;7.10;99.90
15231;DHT22;32569;51.762;8.564;2022-10-19T02:37:47;7.00;99.90
15231;DHT22;32569;51.762;8.564;2022-10-19T02:40:13;6.90;99.90
15231;DHT22;32569;51.762;8.564;2022-10-19T02:42:44;7.00;99.90
15231;DHT22;32569;51.762;8.564;2022-10-19T02:45:19;6.90;99.90
15231;DHT22;32569;51.762;8.564;2022-10-19T02:47:49;6.80;99.90
15231;DHT22;32569;51.762;8.564;2022-10-19T02:50:20;6.80;99.90
15231;DHT22;32569;51.762;8.564;2022-10-19T02:52:47;6.90;99.90
15231;DHT22;32569;51.762;8.564;2022-10-19T02:55:14;6.90;99.90
15231;DHT22;32569;51.762;8.564;2022-10-19T02:57:41;6.80;99.90
15231;DHT22;32569;51.762;8.564;2022-10-19T03:00:09;6.80;99.90
15231;DHT22;32569;51.762;8.564;2022-10-19T03:02:36;6.80;99.90
15231;DHT22;32569;51.762;8.564;2022-10-19T03:05:03;6.80;99.90
15231;DHT22;32569;51.762;8.564;2022-10-19T03:07:31;6.80;99.90
15231;DHT22;32569;51.762;8.564;2022-10-19T03:09:57;6.80;99.90
15231;DHT22;32569;51.762;8.564;2022-10-19T03:12:24;6.80;99.90
15231;DHT22;32569;51.762;8.564;2022-10-19T03:14:51;6.90;99.90
15231;DHT22;32569;51.762;8.564;2022-10-19T03:17:18;6.90;99.90
15231;DHT22;32569;51.762;8.564;2022-10-19T03:19:45;6.90;99.90
15231;DHT22;32569;51.762;8.564;2022-10-19T03:22:12;6.90;99.90
15231;DHT22;32569;51.762;8.564;2022-10-19T03:24:40;6.90;99.90
15231;DHT22;32569;51.762;8.564;2022-10-19T03:27:07;6.90;99.90
15231;DHT22;32569;51.762;8.564;2022-10-19T03:29:34;6.90;99.90
15231;DHT22;32569;51.762;8.564;2022-10-19T03:32:00;7.00;99.90
15231;DHT22;32569;51.762;8.564;2022-10-19T03:34:27;6.90;99.90
15231;DHT22;32569;51.762;8.564;2022-10-19T03:36:54;6.90;99.90
15231;DHT22;32569;51.762;8.564;2022-10-19T03:39:21;6.80;99.90
15231;DHT22;32569;51.762;8.564;2022-10-19T03:41:49;6.80;99.90
15231;DHT22;32569;51.762;8.564;2022-10-19T03:44:15;6.80;99.90
15231;DHT22;32569;51.762;8.564;2022-10-19T03:46:42;6.90;99.90
15231;DHT22;32569;51.762;8.564;2022-10-19T03:49:09;7.00;99.90
15231;DHT22;32569;51.762;8.564;2022-10-19T03:51:36;7.00;99.90
15231;DHT22;32569;51.762;8.564;2022-10-19T03:54:05;6.90;99.90
15231;DHT22;32569;51.762;8.564;2022-10-19T03:56:33;7.10;99.90
15231;DHT22;32569;51.762;8.564;2022-10-19T03:59:03;7.10;99.90
15231;DHT22;32569;51.762;8.564;2022-10-19T04:01:32;7.10;99.90
15231;DHT22;32569;51.762;8.564;2022-10-19T04:04:03;7.10;99.90
15231;DHT22;32569;51.762;8.564;2022-10-19T04:06:32;7.10;99.90
15231;DHT22;32569;51.762;8.564;2022-10-19T04:09:00;7.10;99.90
15231;DHT22;32569;51.762;8.564;2022-10-19T04:11:29;7.10;99.90
15231;DHT22;32569;51.762;8.564;2022-10-19T04:13:57;6.90;99.90
15231;DHT22;32569;51.762;8.564;2022-10-19T04:16:26;6.70;99.90
15231;DHT22;32569;51.762;8.564;2022-10-19T04:18:53;6.80;99.90
15231;DHT22;32569;51.762;8.564;2022-10-19T04:21:22;6.90;99.90
15231;DHT22;32569;51.762;8.564;2022-10-19T04:23:49;7.00;99.90
15231;DHT22;32569;51.762;8.564;2022-10-19T04:26:17;7.20;99.90
15231;DHT22;32569;51.762;8.564;2022-10-19T04:28:44;6.90;99.90
15231;DHT22;32569;51.762;8.564;2022-10-19T04:31:11;6.90;99.90
15231;DHT22;32569;51.762;8.564;2022-10-19T04:33:40;6.90;99.90
15231;DHT22;32569;51.762;8.564;2022-10-19T04:36:08;6.90;99.90
15231;DHT22;32569;51.762;8.564;2022-10-19T04:38:35;6.90;99.90
15231;DHT22;32569;51.762;8.564;2022-10-19T04:41:03;6.90;99.90
15231;DHT22;32569;51.762;8.564;2022-10-19T04:43:31;7.00;99.90
15231;DHT22;32569;51.762;8.564;2022-10-19T04:46:01;7.00;99.90
15231;DHT22;32569;51.762;8.564;2022-10-19T04:48:28;7.00;99.90
15231;DHT22;32569;51.762;8.564;2022-10-19T04:50:56;7.00;99.90
15231;DHT22;32569;51.762;8.564;2022-10-19T04:53:23;7.10;99.90
15231;DHT22;32569;51.762;8.564;2022-10-19T04:55:50;7.10;99.90
15231;DHT22;32569;51.762;8.564;2022-10-19T04:58:17;7.10;99.90
15231;DHT22;32569;51.762;8.564;2022-10-19T05:00:45;7.20;99.90
15231;DHT22;32569;51.762;8.564;2022-10-19T05:03:12;7.20;99.90
15231;DHT22;32569;51.762;8.564;2022-10-19T05:05:40;7.20;99.90
15231;DHT22;32569;51.762;8.564;2022-10-19T05:08:08;7.30;99.90
15231;DHT22;32569;51.762;8.564;2022-10-19T05:10:36;7.30;99.90
15231;DHT22;32569;51.762;8.564;2022-10-19T05:13:04;7.40;99.90
15231;DHT22;32569;51.762;8.564;2022-10-19T05:15:31;7.40;99.90
15231;DHT22;32569;51.762;8.564;2022-10-19T05:17:58;7.40;99.90
15231;DHT22;32569;51.762;8.564;2022-10-19T05:20:25;7.30;99.90
15231;DHT22;32569;51.762;8.564;2022-10-19T05:22:52;7.30;99.90
15231;DHT22;32569;51.762;8.564;2022-10-19T05:25:20;7.30;99.90
15231;DHT22;32569;51.762;8.564;2022-10-19T05:27:50;7.20;99.90
15231;DHT22;32569;51.762;8.564;2022-10-19T05:30:17;7.20;99.90
15231;DHT22;32569;51.762;8.564;2022-10-19T05:32:44;7.30;99.90
15231;DHT22;32569;51.762;8.564;2022-10-19T05:35:10;7.30;99.90
15231;DHT22;32569;51.762;8.564;2022-10-19T05:37:37;7.30;99.90
15231;DHT22;32569;51.762;8.564;2022-10-19T05:40:05;7.40;99.90
15231;DHT22;32569;51.762;8.564;2022-10-19T05:42:33;7.40;99.90
15231;DHT22;32569;51.762;8.564;2022-10-19T05:45:00;7.50;99.90
15231;DHT22;32569;51.762;8.564;2022-10-19T05:47:26;7.40;99.90
15231;DHT22;32569;51.762;8.564;2022-10-19T05:49:53;7.50;99.90
15231;DHT22;32569;51.762;8.564;2022-10-19T05:52:20;7.50;99.90
15231;DHT22;32569;51.762;8.564;2022-10-19T05:54:47;7.40;99.90
15231;DHT22;32569;51.762;8.564;2022-10-19T05:57:14;7.40;99.90
15231;DHT22;32569;51.762;8.564;2022-10-19T05:59:42;7.40;99.90
15231;DHT22;32569;51.762;8.564;2022-10-19T06:02:12;7.50;99.90
15231;DHT22;32569;51.762;8.564;2022-10-19T06:04:39;7.40;99.90
15231;DHT22;32569;51.762;8.564;2022-10-19T06:07:06;7.50;99.90
15231;DHT22;32569;51.762;8.564;2022-10-19T06:09:32;7.60;99.90
15231;DHT22;32569;51.762;8.564;2022-10-19T06:12:01;7.60;99.90
15231;DHT22;32569;51.762;8.564;2022-10-19T06:14:27;7.70;99.90
15231;DHT22;32569;51.762;8.564;2022-10-19T06:16:55;7.80;99.90
15231;DHT22;32569;51.762;8.564;2022-10-19T06:19:22;7.80;99.90
15231;DHT22;32569;51.762;8.564;2022-10-19T06:21:49;7.80;99.90
15231;DHT22;32569;51.762;8.564;2022-10-19T06:24:16;7.80;99.90
15231;DHT22;32569;51.762;8.564;2022-10-19T06:26:42;7.80;99.90
15231;DHT22;32569;51.762;8.564;2022-10-19T06:29:09;7.70;99.90
15231;DHT22;32569;51.762;8.564;2022-10-19T06:31:36;7.90;99.90
15231;DHT22;32569;51.762;8.564;2022-10-19T06:34:04;7.80;99.90
15231;DHT22;32569;51.762;8.564;2022-10-19T06:36:31;7.80;99.90
15231;DHT22;32569;51.762;8.564;2022-10-19T06:38:58;7.80;99.90
15231;DHT22;32569;51.762;8.564;2022-10-19T06:41:26;8.00;99.90
15231;DHT22;32569;51.762;8.564;2022-10-19T06:43:54;7.90;99.90
15231;DHT22;32569;51.762;8.564;2022-10-19T06:46:23;7.90;99.90
15231;DHT22;32569;51.762;8.564;2022-10-19T06:48:51;7.90;99.90
15231;DHT22;32569;51.762;8.564;2022-10-19T06:51:20;7.80;99.90
15231;DHT22;32569;51.762;8.564;2022-10-19T06:53:48;7.80;99.90
15231;DHT22;32569;51.762;8.564;2022-10-19T06:56:15;7.80;99.90
15231;DHT22;32569;51.762;8.564;2022-10-19T06:58:42;7.90;99.90
15231;DHT22;32569;51.762;8.564;2022-10-19T07:01:09;8.00;99.90
15231;DHT22;32569;51.762;8.564;2022-10-19T07:03:36;8.00;99.90
15231;DHT22;32569;51.762;8.564;2022-10-19T07:06:05;8.10;99.90
15231;DHT22;32569;51.762;8.564;2022-10-19T07:08:34;8.10;99.90
15231;DHT22;32569;51.762;8.564;2022-10-19T07:11:04;8.20;99.90
15231;DHT22;32569;51.762;8.564;2022-10-19T07:13:31;8.20;99.90
15231;DHT22;32569;51.762;8.564;2022-10-19T07:15:58;8.20;99.90
15231;DHT22;32569;51.762;8.564;2022-10-19T07:18:27;8.30;99.90
15231;DHT22;32569;51.762;8.564;2022-10-19T07:20:55;8.30;99.90
15231;DHT22;32569;51.762;8.564;2022-10-19T07:23:22;8.40;99.90
15231;DHT22;32569;51.762;8.564;2022-10-19T07:25:50;8.60;99.90
15231;DHT22;32569;51.762;8.564;2022-10-19T07:28:18;8.60;99.90
15231;DHT22;32569;51.762;8.564;2022-10-19T07:30:45;8.50;99.90
15231;DHT22;32569;51.762;8.564;2022-10-19T07:33:12;8.50;99.90
15231;DHT22;32569;51.762;8.564;2022-10-19T07:35:38;8.50;99.90
15231;DHT22;32569;51.762;8.564;2022-10-19T07:38:05;8.50;99.90
15231;DHT22;32569;51.762;8.564;2022-10-19T07:40:33;8.50;99.90
15231;DHT22;32569;51.762;8.564;2022-10-19T07:43:01;8.50;99.90
15231;DHT22;32569;51.762;8.564;2022-10-19T07:45:27;8.50;99.90
15231;DHT22;32569;51.762;8.564;2022-10-19T07:47:54;8.50;99.90
15231;DHT22;32569;51.762;8.564;2022-10-19T07:50:21;8.60;99.90
15231;DHT22;32569;51.762;8.564;2022-10-19T07:52:50;8.70;99.90
15231;DHT22;32569;51.762;8.564;2022-10-19T07:55:17;8.70;99.90
15231;DHT22;32569;51.762;8.564;2022-10-19T07:57:46;8.60;99.90
15231;DHT22;32569;51.762;8.564;2022-10-19T08:00:14;8.70;99.90
15231;DHT22;32569;51.762;8.564;2022-10-19T08:02:41;8.80;99.90
15231;DHT22;32569;51.762;8.564;2022-10-19T08:05:08;8.90;99.90
15231;DHT22;32569;51.762;8.564;2022-10-19T08:07:35;9.10;99.90
15231;DHT22;32569;51.762;8.564;2022-10-19T08:10:02;9.10;99.90
15231;DHT22;32569;51.762;8.564;2022-10-19T08:12:29;9.10;99.90
15231;DHT22;32569;51.762;8.564;2022-10-19T08:14:56;9.20;99.90
15231;DHT22;32569;51.762;8.564;2022-10-19T08:17:24;9.30;99.90
15231;DHT22;32569;51.762;8.564;2022-10-19T08:19:51;9.30;99.90
15231;DHT22;32569;51.762;8.564;2022-10-19T08:22:18;9.40;99.90
15231;DHT22;32569;51.762;8.564;2022-10-19T08:24:44;9.50;99.90
15231;DHT22;32569;51.762;8.564;2022-10-19T08:27:11;9.50;99.90
15231;DHT22;32569;51.762;8.564;2022-10-19T08:29:39;9.60;99.90
15231;DHT22;32569;51.762;8.564;2022-10-19T08:32:05;9.60;99.90
15231;DHT22;32569;51.762;8.564;2022-10-19T08:34:34;9.70;99.90
15231;DHT22;32569;51.762;8.564;2022-10-19T08:37:01;9.60;99.90
15231;DHT22;32569;51.762;8.564;2022-10-19T08:39:28;9.70;99.90
15231;DHT22;32569;51.762;8.564;2022-10-19T08:42:00;9.70;99.90
15231;DHT22;32569;51.762;8.564;2022-10-19T08:44:55;9.80;99.90
15231;DHT22;32569;51.762;8.564;2022-10-19T08:47:34;9.90;99.90
15231;DHT22;32569;51.762;8.564;2022-10-19T08:50:14;10.10;99.90
15231;DHT22;32569;51.762;8.564;2022-10-19T08:52:44;10.10;99.90
15231;DHT22;32569;51.762;8.564;2022-10-19T08:55:14;10.20;99.90
15231;DHT22;32569;51.762;8.564;2022-10-19T08:57:49;10.20;99.90
15231;DHT22;32569;51.762;8.564;2022-10-19T09:00:23;10.30;99.90
15231;DHT22;32569;51.762;8.564;2022-10-19T09:03:00;10.50;99.90
15231;DHT22;32569;51.762;8.564;2022-10-19T09:05:37;10.60;99.90
15231;DHT22;32569;51.762;8.564;2022-10-19T09:08:07;10.60;99.90
15231;DHT22;32569;51.762;8.564;2022-10-19T09:10:37;10.60;99.90
15231;DHT22;32569;51.762;8.564;2022-10-19T09:13:08;10.70;99.90
15231;DHT22;32569;51.762;8.564;2022-10-19T09:15:41;10.80;99.90
15231;DHT22;32569;51.762;8.564;2022-10-19T09:18:09;10.90;99.90
15231;DHT22;32569;51.762;8.564;2022-10-19T09:20:40;10.90;99.90
15231;DHT22;32569;51.762;8.564;2022-10-19T09:23:19;11.00;99.90
15231;DHT22;32569;51.762;8.564;2022-10-19T09:25:47;11.10;99.90
15231;DHT22;32569;51.762;8.564;2022-10-19T09:28:28;11.10;99.90
15231;DHT22;32569;51.762;8.564;2022-10-19T09:30:59;11.20;99.90
15231;DHT22;32569;51.762;8.564;2022-10-19T09:33:32;11.20;99.90
15231;DHT22;32569;51.762;8.564;2022-10-19T09:36:02;11.30;99.90
15231;DHT22;32569;51.762;8.564;2022-10-19T09:38:30;11.40;99.90
15231;DHT22;32569;51.762;8.564;2022-10-19T09:40:57;11.40;99.90
15231;DHT22;32569;51.762;8.564;2022-10-19T09:43:25;11.40;99.90
15231;DHT22;32569;51.762;8.564;2022-10-19T09:45:55;11.50;99.90
15231;DHT22;32569;51.762;8.564;2022-10-19T09:48:28;11.60;99.90
15231;DHT22;32569;51.762;8.564;2022-10-19T09:50:58;11.70;99.90
15231;DHT22;32569;51.762;8.564;2022-10-19T09:53:28;11.70;99.90
15231;DHT22;32569;51.762;8.564;2022-10-19T09:55:58;11.80;99.90
15231;DHT22;32569;51.762;8.564;2022-10-19T09:58:28;11.70;99.90
15231;DHT22;32569;51.762;8.564;2022-10-19T10:00:55;11.80;99.90
15231;DHT22;32569;51.762;8.564;2022-10-19T10:03:26;11.80;99.90
15231;DHT22;32569;51.762;8.564;2022-10-19T10:05:55;11.90;99.90
15231;DHT22;32569;51.762;8.564;2022-10-19T10:08:24;11.90;99.90
15231;DHT22;32569;51.762;8.564;2022-10-19T10:10:58;12.00;99.90
15231;DHT22;32569;51.762;8.564;2022-10-19T10:13:35;12.10;99.90
15231;DHT22;32569;51.762;8.564;2022-10-19T10:16:06;12.10;99.90
15231;DHT22;32569;51.762;8.564;2022-10-19T10:18:37;12.10;99.90
15231;DHT22;32569;51.762;8.564;2022-10-19T10:21:12;12.20;99.90
15231;DHT22;32569;51.762;8.564;2022-10-19T10:23:40;12.10;99.90
15231;DHT22;32569;51.762;8.564;2022-10-19T10:26:17;12.20;99.90
15231;DHT22;32569;51.762;8.564;2022-10-19T10:28:49;12.20;99.90
15231;DHT22;32569;51.762;8.564;2022-10-19T10:31:20;12.30;99.90
15231;DHT22;32569;51.762;8.564;2022-10-19T10:33:54;12.20;99.90
15231;DHT22;32569;51.762;8.564;2022-10-19T10:36:23;12.30;99.90
15231;DHT22;32569;51.762;8.564;2022-10-19T10:38:52;12.40;99.90
15231;DHT22;32569;51.762;8.564;2022-10-19T10:41:22;12.20;99.90
15231;DHT22;32569;51.762;8.564;2022-10-19T10:43:51;12.30;99.90
15231;DHT22;32569;51.762;8.564;2022-10-19T10:46:21;12.30;99.90
15231;DHT22;32569;51.762;8.564;2022-10-19T10:48:56;12.40;99.90
15231;DHT22;32569;51.762;8.564;2022-10-19T10:51:29;12.50;99.90
15231;DHT22;32569;51.762;8.564;2022-10-19T10:54:18;12.30;99.90
15231;DHT22;32569;51.762;8.564;2022-10-19T10:57:05;12.40;99.90
15231;DHT22;32569;51.762;8.564;2022-10-19T10:59:40;12.40;99.90
15231;DHT22;32569;51.762;8.564;2022-10-19T11:02:17;12.50;99.90
15231;DHT22;32569;51.762;8.564;2022-10-19T11:04:51;12.50;99.90
15231;DHT22;32569;51.762;8.564;2022-10-19T11:07:22;12.50;99.90
15231;DHT22;32569;51.762;8.564;2022-10-19T11:09:52;12.50;99.90
15231;DHT22;32569;51.762;8.564;2022-10-19T11:12:30;12.50;99.90
15231;DHT22;32569;51.762;8.564;2022-10-19T11:15:03;12.50;99.90
15231;DHT22;32569;51.762;8.564;2022-10-19T11:17:35;12.50;99.90
15231;DHT22;32569;51.762;8.564;2022-10-19T11:20:05;12.60;99.90
15231;DHT22;32569;51.762;8.564;2022-10-19T11:22:38;12.50;99.90
15231;DHT22;32569;51.762;8.564;2022-10-19T11:25:21;12.50;99.90
15231;DHT22;32569;51.762;8.564;2022-10-19T11:28:02;12.50;99.90
15231;DHT22;32569;51.762;8.564;2022-10-19T11:30:33;12.50;99.90
15231;DHT22;32569;51.762;8.564;2022-10-19T11:33:06;12.60;99.90
15231;DHT22;32569;51.762;8.564;2022-10-19T11:35:44;12.60;99.90
15231;DHT22;32569;51.762;8.564;2022-10-19T11:38:34;12.70;99.90
15231;DHT22;32569;51.762;8.564;2022-10-19T11:41:09;12.60;99.90
15231;DHT22;32569;51.762;8.564;2022-10-19T11:43:43;12.70;99.90
15231;DHT22;32569;51.762;8.564;2022-10-19T11:46:16;12.80;99.90
15231;DHT22;32569;51.762;8.564;2022-10-19T11:49:03;12.80;99.90
15231;DHT22;32569;51.762;8.564;2022-10-19T11:51:39;12.80;99.90
15231;DHT22;32569;51.762;8.564;2022-10-19T11:54:17;12.70;99.90
15231;DHT22;32569;51.762;8.564;2022-10-19T11:56:50;13.00;99.90
15231;DHT22;32569;51.762;8.564;2022-10-19T11:59:29;12.60;99.90
15231;DHT22;32569;51.762;8.564;2022-10-19T12:02:03;12.40;99.90
15231;DHT22;32569;51.762;8.564;2022-10-19T12:04:42;12.40;99.90
15231;DHT22;32569;51.762;8.564;2022-10-19T12:10:23;12.40;99.90
15231;DHT22;32569;51.762;8.564;2022-10-19T12:12:53;12.40;99.90
15231;DHT22;32569;51.762;8.564;2022-10-19T12:15:28;12.40;99.90
15231;DHT22;32569;51.762;8.564;2022-10-19T12:18:00;12.60;99.90
15231;DHT22;32569;51.762;8.564;2022-10-19T12:20:31;12.50;99.90
15231;DHT22;32569;51.762;8.564;2022-10-19T12:23:05;12.50;99.90
15231;DHT22;32569;51.762;8.564;2022-10-19T12:25:38;12.50;99.90
15231;DHT22;32569;51.762;8.564;2022-10-19T12:28:11;12.40;99.90
15231;DHT22;32569;51.762;8.564;2022-10-19T12:30:46;12.40;99.90
15231;DHT22;32569;51.762;8.564;2022-10-19T12:33:17;12.50;99.90
15231;DHT22;32569;51.762;8.564;2022-10-19T12:36:03;12.50;99.90
15231;DHT22;32569;51.762;8.564;2022-10-19T12:38:39;12.40;99.90
15231;DHT22;32569;51.762;8.564;2022-10-19T12:41:15;12.40;99.90
15231;DHT22;32569;51.762;8.564;2022-10-19T12:43:54;12.40;99.90
15231;DHT22;32569;51.762;8.564;2022-10-19T12:46:32;12.40;99.90
15231;DHT22;32569;51.762;8.564;2022-10-19T12:52:05;12.40;99.90
15231;DHT22;32569;51.762;8.564;2022-10-19T12:54:35;12.50;99.90
15231;DHT22;32569;51.762;8.564;2022-10-19T12:57:25;12.50;99.90
15231;DHT22;32569;51.762;8.564;2022-10-19T13:00:02;12.50;99.90
15231;DHT22;32569;51.762;8.564;2022-10-19T13:02:33;12.50;99.90
15231;DHT22;32569;51.762;8.564;2022-10-19T13:05:01;12.40;99.90
15231;DHT22;32569;51.762;8.564;2022-10-19T13:07:29;12.40;99.90
15231;DHT22;32569;51.762;8.564;2022-10-19T13:10:00;12.40;99.90
15231;DHT22;32569;51.762;8.564;2022-10-19T13:12:40;12.40;99.90
15231;DHT22;32569;51.762;8.564;2022-10-19T13:21:53;12.50;99.90
15231;DHT22;32569;51.762;8.564;2022-10-19T13:24:33;12.60;99.90
15231;DHT22;32569;51.762;8.564;2022-10-19T13:27:23;12.50;99.90
15231;DHT22;32569;51.762;8.564;2022-10-19T13:29:50;12.60;99.90
15231;DHT22;32569;51.762;8.564;2022-10-19T13:32:36;12.80;99.90
15231;DHT22;32569;51.762;8.564;2022-10-19T13:35:25;12.70;99.90
15231;DHT22;32569;51.762;8.564;2022-10-19T13:38:22;12.70;99.90
15231;DHT22;32569;51.762;8.564;2022-10-19T13:41:08;12.60;99.90
15231;DHT22;32569;51.762;8.564;2022-10-19T13:43:39;12.70;99.90
15231;DHT22;32569;51.762;8.564;2022-10-19T13:46:12;12.70;99.90
15231;DHT22;32569;51.762;8.564;2022-10-19T13:51:50;12.60;99.90
15231;DHT22;32569;51.762;8.564;2022-10-19T13:54:32;12.60;99.90
15231;DHT22;32569;51.762;8.564;2022-10-19T13:57:12;12.70;99.90
15231;DHT22;32569;51.762;8.564;2022-10-19T14:00:10;12.70;99.90
15231;DHT22;32569;51.762;8.564;2022-10-19T14:03:01;12.60;99.90
15231;DHT22;32569;51.762;8.564;2022-10-19T14:06:00;12.60;99.90
15231;DHT22;32569;51.762;8.564;2022-10-19T14:09:04;12.60;99.90
15231;DHT22;32569;51.762;8.564;2022-10-19T14:11:39;12.50;99.90
15231;DHT22;32569;51.762;8.564;2022-10-19T14:14:13;12.50;99.90
15231;DHT22;32569;51.762;8.564;2022-10-19T14:16:55;12.60;99.90
15231;DHT22;32569;51.762;8.564;2022-10-19T14:19:25;12.50;99.90
15231;DHT22;32569;51.762;8.564;2022-10-19T14:21:54;12.50;99.90
15231;DHT22;32569;51.762;8.564;2022-10-19T14:24:30;12.60;99.90
15231;DHT22;32569;51.762;8.564;2022-10-19T14:27:01;12.50;99.90
15231;DHT22;32569;51.762;8.564;2022-10-19T14:29:29;12.40;99.90
15231;DHT22;32569;51.762;8.564;2022-10-19T14:31:57;12.40;99.90
15231;DHT22;32569;51.762;8.564;2022-10-19T14:34:24;12.50;99.90
15231;DHT22;32569;51.762;8.564;2022-10-19T14:36:51;12.50;99.90
15231;DHT22;32569;51.762;8.564;2022-10-19T14:39:25;12.40;99.90
15231;DHT22;32569;51.762;8.564;2022-10-19T14:41:54;12.40;99.90
15231;DHT22;32569;51.762;8.564;2022-10-19T14:44:40;12.40;99.90
15231;DHT22;32569;51.762;8.564;2022-10-19T14:47:16;12.50;99.90
15231;DHT22;32569;51.762;8.564;2022-10-19T14:49:43;12.50;99.90
15231;DHT22;32569;51.762;8.564;2022-10-19T14:52:13;12.40;99.90
15231;DHT22;32569;51.762;8.564;2022-10-19T14:54:43;12.40;99.90
15231;DHT22;32569;51.762;8.564;2022-10-19T14:57:14;12.40;99.90
15231;DHT22;32569;51.762;8.564;2022-10-19T14:59:46;12.30;99.90
15231;DHT22;32569;51.762;8.564;2022-10-19T15:02:17;12.30;99.90
15231;DHT22;32569;51.762;8.564;2022-10-19T15:04:44;12.30;99.90
15231;DHT22;32569;51.762;8.564;2022-10-19T15:07:16;12.20;99.90
15231;DHT22;32569;51.762;8.564;2022-10-19T15:09:50;12.20;99.90
15231;DHT22;32569;51.762;8.564;2022-10-19T15:12:21;12.10;99.90
15231;DHT22;32569;51.762;8.564;2022-10-19T15:14:50;12.10;99.90
15231;DHT22;32569;51.762;8.564;2022-10-19T15:17:23;12.00;99.90
15231;DHT22;32569;51.762;8.564;2022-10-19T15:19:50;12.00;99.90
15231;DHT22;32569;51.762;8.564;2022-10-19T15:22:20;11.90;99.90
15231;DHT22;32569;51.762;8.564;2022-10-19T15:24:57;11.90;99.90
15231;DHT22;32569;51.762;8.564;2022-10-19T15:27:30;11.80;99.90
15231;DHT22;32569;51.762;8.564;2022-10-19T15:30:00;11.70;99.90
15231;DHT22;32569;51.762;8.564;2022-10-19T15:32:30;11.60;99.90
15231;DHT22;32569;51.762;8.564;2022-10-19T15:35:00;11.60;99.90
15231;DHT22;32569;51.762;8.564;2022-10-19T15:37:33;11.60;99.90
15231;DHT22;32569;51.762;8.564;2022-10-19T15:40:08;11.50;99.90
15231;DHT22;32569;51.762;8.564;2022-10-19T15:42:37;11.50;99.90
15231;DHT22;32569;51.762;8.564;2022-10-19T15:45:28;11.50;99.90
15231;DHT22;32569;51.762;8.564;2022-10-19T15:48:17;11.40;99.90
15231;DHT22;32569;51.762;8.564;2022-10-19T15:50:50;11.40;99.90
15231;DHT22;32569;51.762;8.564;2022-10-19T15:53:18;11.40;99.90
15231;DHT22;32569;51.762;8.564;2022-10-19T15:55:45;11.30;99.90
15231;DHT22;32569;51.762;8.564;2022-10-19T15:58:12;11.20;99.90
15231;DHT22;32569;51.762;8.564;2022-10-19T16:00:41;11.20;99.90
15231;DHT22;32569;51.762;8.564;2022-10-19T16:03:08;11.20;99.90
15231;DHT22;32569;51.762;8.564;2022-10-19T16:05:35;11.10;99.90
15231;DHT22;32569;51.762;8.564;2022-10-19T16:08:02;11.10;99.90
15231;DHT22;32569;51.762;8.564;2022-10-19T16:10:28;11.00;99.90
15231;DHT22;32569;51.762;8.564;2022-10-19T16:12:55;11.00;99.90
15231;DHT22;32569;51.762;8.564;2022-10-19T16:15:22;10.90;99.90
15231;DHT22;32569;51.762;8.564;2022-10-19T16:17:55;10.90;99.90
15231;DHT22;32569;51.762;8.564;2022-10-19T16:20:24;10.80;99.90
15231;DHT22;32569;51.762;8.564;2022-10-19T16:22:52;10.70;99.90